sensor_id;sensor_type;location;lat;lon;timestamp;temperature;humidity
9095;DHT22;4583;49.796;9.902;2023-03-01T13:20:25;9.50;50.00
9095;DHT22;4583;49.796;9.902;2023-03-01T13:50:54;9.90;49.90
9095;DHT22;4583;49.796;9.902;2023-03-01T14:01:06;10.20;49.10
9095;DHT22;4583;49.796;9.902;2023-03-01T14:21:47;10.90;48.10
9095;DHT22;4583;49.796;9.902;2023-03-01T14:31:50;10.90;48.50
9095;DHT22;4583;49.796;9.902;2023-03-01T14:41:54;11.90;46.60
9095;DHT22;4583;49.796;9.902;2023-03-01T14:52:04;13.10;45.00
9095;DHT22;4583;49.796;9.902;2023-03-01T15:02:13;13.60;45.10
9095;DHT22;4583;49.796;9.902;2023-03-01T15:12:39;16.50;41.10
9095;DHT22;4583;49.796;9.902;2023-03-01T15:22:44;17.80;38.80
9095;DHT22;4583;49.796;9.902;2023-03-01T15:33:25;15.20;39.40
9095;DHT22;4583;49.796;9.902;2023-03-01T15:43:46;15.30;39.80
9095;DHT22;4583;49.796;9.902;2023-03-01T15:53:51;12.80;42.70
9095;DHT22;4583;49.796;9.902;2023-03-01T16:03:55;13.00;48.50
9095;DHT22;4583;49.796;9.902;2023-03-01T16:13:58;10.80;43.70
9095;DHT22;4583;49.796;9.902;2023-03-01T16:23:59;10.00;45.10
9095;DHT22;4583;49.796;9.902;2023-03-01T16:34:01;9.50;47.40
9095;DHT22;4583;49.796;9.902;2023-03-01T16:47:56;9.10;49.00
9095;DHT22;4583;49.796;9.902;2023-03-01T16:57:57;8.70;50.10
9095;DHT22;4583;49.796;9.902;2023-03-01T17:07:59;8.40;51.00
9095;DHT22;4583;49.796;9.902;2023-03-01T17:18:01;8.00;51.80
9095;DHT22;4583;49.796;9.902;2023-03-01T17:33:51;7.70;53.00
9095;DHT22;4583;49.796;9.902;2023-03-01T17:43:53;7.50;53.70
9095;DHT22;4583;49.796;9.902;2023-03-01T17:53:54;7.30;54.20
9095;DHT22;4583;49.796;9.902;2023-03-01T18:03:56;7.20;54.90
9095;DHT22;4583;49.796;9.902;2023-03-01T18:20:57;7.00;55.60
9095;DHT22;4583;49.796;9.902;2023-03-01T18:31:07;6.80;56.40
9095;DHT22;4583;49.796;9.902;2023-03-01T18:41:09;6.70;56.70
9095;DHT22;4583;49.796;9.902;2023-03-01T18:51:14;6.60;57.10
9095;DHT22;4583;49.796;9.902;2023-03-01T19:01:22;6.70;58.00
9095;DHT22;4583;49.796;9.902;2023-03-01T19:11:25;6.50;57.90
9095;DHT22;4583;49.796;9.902;2023-03-01T19:21:32;6.30;57.90
9095;DHT22;4583;49.796;9.902;2023-03-01T19:41:36;6.10;58.30
9095;DHT22;4583;49.796;9.902;2023-03-01T19:51:38;6.00;58.60
9095;DHT22;4583;49.796;9.902;2023-03-01T20:01:40;6.00;58.90
9095;DHT22;4583;49.796;9.902;2023-03-01T20:11:45;5.90;59.10
9095;DHT22;4583;49.796;9.902;2023-03-01T20:31:49;5.70;59.70
9095;DHT22;4583;49.796;9.902;2023-03-01T20:41:50;5.60;59.80
9095;DHT22;4583;49.796;9.902;2023-03-01T20:51:52;5.60;60.20
9095;DHT22;4583;49.796;9.902;2023-03-01T21:01:54;5.50;60.40
9095;DHT22;4583;49.796;9.902;2023-03-01T21:11:56;5.40;60.60
9095;DHT22;4583;49.796;9.902;2023-03-01T21:21:58;5.30;61.00
9095;DHT22;4583;49.796;9.902;2023-03-01T21:31:59;5.20;61.20
9095;DHT22;4583;49.796;9.902;2023-03-01T21:42:05;5.00;61.70
9095;DHT22;4583;49.796;9.902;2023-03-01T21:52:06;4.80;62.00
9095;DHT22;4583;49.796;9.902;2023-03-01T22:02:11;4.70;62.70
9095;DHT22;4583;49.796;9.902;2023-03-01T22:12:14;4.70;63.00
9095;DHT22;4583;49.796;9.902;2023-03-01T22:22:16;4.50;63.20
9095;DHT22;4583;49.796;9.902;2023-03-01T22:32:18;4.40;63.70
9095;DHT22;4583;49.796;9.902;2023-03-01T22:42:20;4.40;63.90
9095;DHT22;4583;49.796;9.902;2023-03-01T22:52:22;4.30;64.20
9095;DHT22;4583;49.796;9.902;2023-03-01T23:07:48;4.30;64.60
9095;DHT22;4583;49.796;9.902;2023-03-01T23:17:50;4.30;64.80
9095;DHT22;4583;49.796;9.902;2023-03-01T23:27:51;4.30;64.90
9095;DHT22;4583;49.796;9.902;2023-03-01T23:37:54;4.40;65.20
9095;DHT22;4583;49.796;9.902;2023-03-01T23:48:40;4.20;65.30
9095;DHT22;4583;49.796;9.902;2023-03-01T23:58:42;4.20;65.80
